Time;durP1;ratioP1;P1;durP2;ratioP2;P2;SDS_P1;SDS_P2;PMS_P1;PMS_P2;Temp;Humidity;BMP_temperature;BMP_pressure;BME280_temperature;BME280_humidity;BME280_pressure;Samples;Min_cycle;Max_cycle;Signal;HPM_P1;HPM_P2
2021/12/26 00:00:55;;;;;;;10.43;4.87;;;-7.50;99.90;;;;;;5012145;28;20763;-30
2021/12/26 00:03:27;;;;;;;10.63;4.50;;;-7.50;99.90;;;;;;5008271;28;20276;-30
2021/12/26 00:05:55;;;;;;;10.07;4.40;;;-7.60;99.90;;;;;;5001351;28;20293;-30
2021/12/26 00:08:22;;;;;;;8.77;4.20;;;-7.60;99.90;;;;;;4993570;28;20281;-30
2021/12/26 00:10:48;;;;;;;10.53;4.13;;;-7.60;99.90;;;;;;5024563;28;20312;-30
2021/12/26 00:13:18;;;;;;;9.97;4.00;;;-7.60;99.90;;;;;;5028729;28;20290;-30
2021/12/26 00:15:45;;;;;;;10.63;3.97;;;-7.50;99.90;;;;;;5013963;28;20292;-30
2021/12/26 00:18:11;;;;;;;6.93;3.57;;;-7.60;99.90;;;;;;4993173;28;20324;-31
2021/12/26 00:20:38;;;;;;;8.97;4.63;;;-7.60;99.90;;;;;;5009579;28;20316;-30
2021/12/26 00:23:04;;;;;;;8.03;3.83;;;-7.60;99.90;;;;;;4972151;28;20056;-30
2021/12/26 00:25:30;;;;;;;9.50;3.80;;;-7.60;99.90;;;;;;5007065;28;20277;-30
2021/12/26 00:27:56;;;;;;;10.73;4.20;;;-7.60;99.90;;;;;;4975003;28;20056;-30
2021/12/26 00:30:22;;;;;;;8.13;3.47;;;-7.60;99.90;;;;;;4989631;28;20046;-30
2021/12/26 00:32:49;;;;;;;13.97;4.40;;;-7.60;99.90;;;;;;4987711;28;20524;-30
2021/12/26 00:35:18;;;;;;;7.70;3.93;;;-7.70;99.90;;;;;;4967463;28;20287;-30
2021/12/26 00:37:45;;;;;;;6.60;3.50;;;-7.70;99.90;;;;;;4954729;28;20290;-30
2021/12/26 00:40:12;;;;;;;7.93;3.50;;;-7.70;99.90;;;;;;4953307;28;20290;-30
2021/12/26 00:42:39;;;;;;;6.30;3.40;;;-7.70;99.90;;;;;;4969287;28;20800;-30
2021/12/26 00:45:06;;;;;;;9.13;3.60;;;-7.70;99.90;;;;;;4970228;28;20348;-30
2021/12/26 00:47:33;;;;;;;6.10;3.30;;;-7.70;99.90;;;;;;4952752;28;20405;-30
2021/12/26 00:50:01;;;;;;;6.57;2.97;;;-7.70;99.90;;;;;;4968811;28;20566;-30
2021/12/26 00:52:26;;;;;;;6.93;2.77;;;-7.70;99.90;;;;;;4952267;28;20279;-30
2021/12/26 00:54:53;;;;;;;7.10;3.00;;;-7.80;99.90;;;;;;4969861;28;20301;-30
2021/12/26 00:57:19;;;;;;;9.23;2.83;;;-7.80;99.90;;;;;;4953994;28;20042;-30
2021/12/26 00:59:45;;;;;;;8.17;3.13;;;-7.80;99.90;;;;;;4969975;28;20781;-30
2021/12/26 01:02:11;;;;;;;6.90;2.67;;;-7.80;99.90;;;;;;4971559;28;20294;-30
2021/12/26 01:04:39;;;;;;;6.03;2.80;;;-7.90;99.90;;;;;;4969839;28;20038;-30
2021/12/26 01:07:17;;;;;;;7.97;2.97;;;-7.90;99.90;;;;;;4972969;28;20285;-30
2021/12/26 01:09:47;;;;;;;6.83;3.07;;;-7.90;99.90;;;;;;4983475;28;20309;-30
2021/12/26 01:12:15;;;;;;;5.53;2.47;;;-7.80;99.90;;;;;;4968859;28;20310;-30
2021/12/26 01:14:48;;;;;;;6.33;2.90;;;-7.80;99.90;;;;;;4968347;28;20307;-30
2021/12/26 01:17:17;;;;;;;7.73;2.77;;;-7.80;99.90;;;;;;4972218;28;20373;-30
2021/12/26 01:19:47;;;;;;;6.33;2.43;;;-7.80;99.90;;;;;;4988875;28;20286;-30
2021/12/26 01:22:15;;;;;;;6.50;3.00;;;-7.80;99.90;;;;;;4988386;28;20802;-30
2021/12/26 01:24:42;;;;;;;8.27;2.93;;;-7.80;99.90;;;;;;4983832;28;20289;-30
2021/12/26 01:27:08;;;;;;;6.80;2.57;;;-7.80;99.90;;;;;;4972895;28;20293;-30
2021/12/26 01:29:34;;;;;;;7.30;2.73;;;-7.80;99.90;;;;;;5001908;28;20285;-30
2021/12/26 01:32:00;;;;;;;7.57;2.63;;;-7.80;99.90;;;;;;5008613;28;20140;-30
2021/12/26 01:34:26;;;;;;;6.53;2.23;;;-7.70;99.90;;;;;;5007710;28;20384;-30
2021/12/26 01:36:51;;;;;;;5.90;2.17;;;-7.70;99.90;;;;;;4982456;28;20042;-30
2021/12/26 01:39:17;;;;;;;7.43;2.90;;;-7.70;99.90;;;;;;4989014;28;20046;-30
2021/12/26 01:41:44;;;;;;;5.33;2.63;;;-7.70;99.90;;;;;;4988887;28;20050;-30
2021/12/26 01:44:12;;;;;;;5.93;3.07;;;-7.70;99.90;;;;;;4970875;28;20046;-30
2021/12/26 01:46:39;;;;;;;6.53;2.83;;;-7.70;99.90;;;;;;4941031;28;20848;-30
2021/12/26 01:49:07;;;;;;;5.40;2.30;;;-7.70;99.90;;;;;;4986371;28;20286;-30
2021/12/26 01:51:33;;;;;;;8.40;2.37;;;-7.70;99.90;;;;;;4988751;28;20337;-30
2021/12/26 01:54:04;;;;;;;6.13;2.70;;;-7.70;99.90;;;;;;4970419;28;20461;-30
2021/12/26 01:56:30;;;;;;;5.68;2.58;;;-7.80;99.90;;;;;;4975018;28;20141;-29
2021/12/26 01:58:57;;;;;;;5.97;2.13;;;-7.80;99.90;;;;;;4986045;28;20134;-30
2021/12/26 02:01:22;;;;;;;6.83;2.67;;;-7.80;99.90;;;;;;5001658;28;20057;-30
2021/12/26 02:03:48;;;;;;;5.10;2.63;;;-7.80;99.90;;;;;;4971978;28;20315;-30
2021/12/26 02:06:14;;;;;;;5.90;2.30;;;-7.80;99.90;;;;;;4974292;28;20046;-30
2021/12/26 02:08:40;;;;;;;5.37;2.30;;;-7.90;99.90;;;;;;4983684;28;20164;-30
2021/12/26 02:11:05;;;;;;;4.90;2.50;;;-7.90;99.90;;;;;;5025001;28;20087;-30
2021/12/26 02:13:33;;;;;;;6.13;2.50;;;-7.90;99.90;;;;;;5019889;28;20049;-29
2021/12/26 02:15:59;;;;;;;7.87;2.77;;;-7.90;99.90;;;;;;4990610;28;20046;-30
2021/12/26 02:18:26;;;;;;;5.40;2.40;;;-7.90;99.90;;;;;;4991192;28;20284;-30
2021/12/26 02:21:09;;;;;;;7.00;2.83;;;-8.00;99.90;;;;;;5008516;28;20289;-30
2021/12/26 02:23:44;;;;;;;5.73;2.60;;;-8.00;99.90;;;;;;5001915;28;20428;-30
2021/12/26 02:28:48;;;;;;;7.27;2.97;;;-8.00;99.90;;;;;;5004256;28;20820;-30
2021/12/26 02:31:16;;;;;;;9.23;3.10;;;-8.10;99.90;;;;;;4993773;28;20308;-30
2021/12/26 02:33:42;;;;;;;4.30;2.03;;;-8.10;99.90;;;;;;5010870;28;20376;-30
2021/12/26 02:36:08;;;;;;;6.20;2.70;;;-8.10;99.90;;;;;;5000682;28;20372;-29
2021/12/26 02:38:35;;;;;;;4.83;2.17;;;-8.10;99.90;;;;;;4965532;28;20546;-30
2021/12/26 02:41:02;;;;;;;7.43;2.23;;;-8.10;99.90;;;;;;4992002;28;20637;-30
2021/12/26 02:43:29;;;;;;;6.73;2.57;;;-8.10;99.90;;;;;;4991153;28;20696;-30
2021/12/26 02:45:56;;;;;;;6.53;2.30;;;-8.10;99.90;;;;;;4991725;28;20633;-30
2021/12/26 02:48:22;;;;;;;5.67;2.10;;;-8.10;99.90;;;;;;4957898;28;20327;-30
2021/12/26 02:50:56;;;;;;;5.47;2.13;;;-8.10;99.90;;;;;;4996313;28;20344;-30
2021/12/26 02:53:22;;;;;;;5.43;1.97;;;-8.10;99.90;;;;;;5009322;28;20292;-30
2021/12/26 02:55:50;;;;;;;4.00;1.90;;;-8.10;99.90;;;;;;5011298;28;20276;-29
2021/12/26 02:58:16;;;;;;;4.37;1.60;;;-8.10;99.90;;;;;;4977179;28;20811;-30
2021/12/26 03:00:49;;;;;;;6.57;2.30;;;-8.10;99.90;;;;;;5013618;28;20443;-30
2021/12/26 03:03:15;;;;;;;4.20;2.20;;;-8.10;99.90;;;;;;5010360;28;20323;-30
2021/12/26 03:05:43;;;;;;;4.67;1.93;;;-8.00;99.90;;;;;;4984977;28;20308;-30
2021/12/26 03:08:13;;;;;;;3.33;1.77;;;-8.00;99.90;;;;;;4994557;28;20077;-30
2021/12/26 03:10:39;;;;;;;4.90;1.97;;;-8.10;99.90;;;;;;5024679;28;20391;-30
2021/12/26 03:13:09;;;;;;;6.93;2.03;;;-8.00;99.90;;;;;;5011959;28;20284;-30
2021/12/26 03:15:36;;;;;;;6.00;2.03;;;-8.00;99.90;;;;;;5016890;28;20295;-30
2021/12/26 03:18:03;;;;;;;5.10;2.00;;;-8.00;99.90;;;;;;4994520;28;20293;-30
2021/12/26 03:20:33;;;;;;;6.53;2.40;;;-8.00;99.90;;;;;;5011054;28;20285;-30
2021/12/26 03:23:01;;;;;;;4.13;2.13;;;-8.00;99.90;;;;;;5007985;28;20443;-29
2021/12/26 03:25:27;;;;;;;6.20;2.07;;;-8.00;99.90;;;;;;5008102;28;20081;-30
2021/12/26 03:27:54;;;;;;;4.87;1.70;;;-8.00;99.90;;;;;;4993842;28;20293;-30
2021/12/26 03:30:24;;;;;;;6.70;1.80;;;-8.00;99.90;;;;;;4992943;28;20312;-30
2021/12/26 03:32:50;;;;;;;6.60;1.93;;;-8.00;99.90;;;;;;5010070;28;20311;-30
2021/12/26 03:35:18;;;;;;;4.20;1.87;;;-7.90;99.90;;;;;;5010350;28;20288;-29
2021/12/26 03:37:44;;;;;;;4.37;1.90;;;-7.90;99.90;;;;;;4976148;28;20367;-30
2021/12/26 03:40:11;;;;;;;4.20;1.80;;;-7.90;99.90;;;;;;4972656;28;20862;-30
2021/12/26 03:42:37;;;;;;;4.77;1.77;;;-7.90;99.90;;;;;;4972809;28;20312;-30
2021/12/26 03:45:05;;;;;;;3.53;1.63;;;-7.90;99.90;;;;;;4990748;28;20286;-30
2021/12/26 03:47:32;;;;;;;3.20;1.70;;;-7.90;99.90;;;;;;4974478;28;20348;-30
2021/12/26 03:49:59;;;;;;;5.33;1.50;;;-7.80;99.90;;;;;;4989175;28;20297;-30
2021/12/26 03:52:25;;;;;;;6.17;2.00;;;-7.80;99.90;;;;;;5007011;28;20339;-30
2021/12/26 03:54:51;;;;;;;5.13;1.73;;;-7.90;99.90;;;;;;5010239;28;20339;-30
2021/12/26 03:57:17;;;;;;;4.37;1.40;;;-7.90;99.90;;;;;;4994014;28;20289;-30
2021/12/26 03:59:43;;;;;;;4.00;1.57;;;-7.80;99.90;;;;;;5009725;28;20323;-30
2021/12/26 04:02:09;;;;;;;3.03;1.57;;;-7.80;99.90;;;;;;5011266;28;20075;-30
2021/12/26 04:04:35;;;;;;;3.70;1.60;;;-7.80;99.90;;;;;;5001856;28;20038;-30
2021/12/26 04:07:00;;;;;;;3.67;1.50;;;-7.80;99.90;;;;;;4957277;28;20042;-30
2021/12/26 04:09:26;;;;;;;4.30;1.87;;;-7.80;99.90;;;;;;4978881;28;20437;-29
2021/12/26 04:11:52;;;;;;;4.20;1.80;;;-7.80;99.90;;;;;;5029799;28;20064;-30
2021/12/26 04:14:19;;;;;;;3.27;1.63;;;-7.80;99.90;;;;;;5025444;28;20042;-30
2021/12/26 04:16:45;;;;;;;5.27;1.93;;;-7.80;99.90;;;;;;4976638;28;20297;-30
2021/12/26 04:19:11;;;;;;;4.97;1.90;;;-7.80;99.90;;;;;;5008594;28;20584;-30
2021/12/26 04:21:36;;;;;;;4.30;1.87;;;-7.80;99.90;;;;;;5009645;28;20300;-30
2021/12/26 04:24:04;;;;;;;4.17;1.80;;;-7.80;99.90;;;;;;4985901;28;20042;-30
2021/12/26 04:26:30;;;;;;;4.40;1.50;;;-7.80;99.90;;;;;;4995817;28;20386;-29
2021/12/26 04:28:56;;;;;;;5.60;1.67;;;-7.80;99.90;;;;;;5006887;28;20281;-30
2021/12/26 04:31:22;;;;;;;5.63;1.80;;;-7.80;99.90;;;;;;5009264;28;20309;-30
2021/12/26 04:33:48;;;;;;;3.50;1.73;;;-7.80;99.90;;;;;;5008742;28;20127;-30
2021/12/26 04:36:15;;;;;;;3.83;1.60;;;-7.80;99.90;;;;;;4994370;28;20405;-29
2021/12/26 04:38:41;;;;;;;4.77;1.73;;;-7.80;99.90;;;;;;4983286;28;20316;-30
2021/12/26 04:41:07;;;;;;;3.50;1.60;;;-7.80;99.90;;;;;;4989778;28;20811;-30
2021/12/26 04:43:35;;;;;;;5.57;2.17;;;-7.80;99.90;;;;;;4971081;28;20384;-30
2021/12/26 04:46:05;;;;;;;3.57;1.93;;;-7.80;99.90;;;;;;4989975;28;20451;-30
2021/12/26 04:48:32;;;;;;;4.37;2.10;;;-7.80;99.90;;;;;;4942876;28;20360;-30
2021/12/26 04:50:58;;;;;;;3.37;1.67;;;-7.80;99.90;;;;;;4971990;28;20609;-30
2021/12/26 04:53:24;;;;;;;5.10;1.93;;;-7.90;99.90;;;;;;4971161;28;20304;-30
2021/12/26 04:55:50;;;;;;;4.33;1.77;;;-7.90;99.90;;;;;;4972004;28;20266;-30
2021/12/26 04:58:16;;;;;;;4.17;1.40;;;-7.90;99.90;;;;;;4972985;28;20092;-30
2021/12/26 05:00:41;;;;;;;4.70;1.83;;;-7.90;99.90;;;;;;4997609;28;20061;-30
2021/12/26 05:03:08;;;;;;;5.57;2.00;;;-7.90;99.90;;;;;;5007890;28;20108;-30
2021/12/26 05:05:35;;;;;;;5.83;1.60;;;-8.00;99.90;;;;;;5000686;28;20128;-30
2021/12/26 05:08:01;;;;;;;6.57;1.93;;;-8.00;99.90;;;;;;4992746;28;20296;-30
2021/12/26 05:10:28;;;;;;;4.47;1.90;;;-7.90;99.90;;;;;;5020858;28;20383;-30
2021/12/26 05:12:55;;;;;;;4.40;1.90;;;-8.00;99.90;;;;;;5027859;28;20456;-30
2021/12/26 05:15:21;;;;;;;5.80;1.80;;;-8.00;99.90;;;;;;5016672;28;20650;-30
2021/12/26 05:17:51;;;;;;;4.30;1.80;;;-8.00;99.90;;;;;;4958217;28;20296;-30
2021/12/26 05:20:20;;;;;;;4.07;1.70;;;-8.00;99.90;;;;;;5008599;28;20129;-30
2021/12/26 05:22:50;;;;;;;3.57;1.70;;;-7.90;99.90;;;;;;4990035;28;20856;-30
2021/12/26 05:25:17;;;;;;;3.00;1.40;;;-8.00;99.90;;;;;;5004412;28;20664;-30
2021/12/26 05:27:44;;;;;;;5.50;1.83;;;-7.90;99.90;;;;;;4992329;28;20038;-30
2021/12/26 05:30:12;;;;;;;3.37;1.60;;;-7.90;99.90;;;;;;4973690;28;20807;-30
2021/12/26 05:32:39;;;;;;;5.90;2.10;;;-7.90;99.90;;;;;;4968721;28;20282;-30
2021/12/26 05:35:06;;;;;;;5.20;1.83;;;-7.90;99.90;;;;;;4968096;28;20455;-30
2021/12/26 05:37:32;;;;;;;2.00;1.30;;;-7.90;99.90;;;;;;4969357;28;20388;-30
2021/12/26 05:39:57;;;;;;;4.17;1.70;;;-7.90;99.90;;;;;;4987863;28;20396;-30
2021/12/26 05:42:24;;;;;;;4.37;1.87;;;-7.90;99.90;;;;;;4988445;28;20061;-30
2021/12/26 05:44:51;;;;;;;5.33;1.50;;;-7.90;99.90;;;;;;4988806;28;20058;-30
2021/12/26 05:47:17;;;;;;;4.40;1.87;;;-7.90;99.90;;;;;;4971140;28;20293;-30
2021/12/26 05:49:42;;;;;;;6.97;2.27;;;-7.90;99.90;;;;;;4987120;28;20290;-30
2021/12/26 05:52:09;;;;;;;4.83;1.60;;;-7.90;99.90;;;;;;4987686;28;20513;-30
2021/12/26 05:54:35;;;;;;;2.73;1.53;;;-8.00;99.90;;;;;;4987254;28;20054;-29
2021/12/26 05:57:02;;;;;;;4.63;1.80;;;-8.00;99.90;;;;;;4973368;28;20290;-30
2021/12/26 05:59:28;;;;;;;3.20;1.50;;;-8.00;99.90;;;;;;4986276;28;20292;-30
2021/12/26 06:01:53;;;;;;;4.37;1.63;;;-8.00;99.90;;;;;;4989314;28;20298;-30
2021/12/26 06:04:19;;;;;;;5.93;2.03;;;-8.00;99.90;;;;;;4991879;28;20056;-30
2021/12/26 06:06:45;;;;;;;4.33;1.63;;;-8.00;99.90;;;;;;4976857;28;20053;-30
2021/12/26 06:09:11;;;;;;;3.33;1.70;;;-8.00;99.90;;;;;;4991392;28;20042;-30
2021/12/26 06:11:37;;;;;;;3.40;2.00;;;-7.90;99.90;;;;;;4966767;28;20054;-30
2021/12/26 06:14:04;;;;;;;2.83;1.57;;;-8.00;99.90;;;;;;4990510;28;20364;-30
2021/12/26 06:16:30;;;;;;;4.63;1.70;;;-7.90;99.90;;;;;;4977603;28;20293;-30
2021/12/26 06:18:56;;;;;;;3.27;1.40;;;-8.00;99.90;;;;;;4990148;28;20277;-30
2021/12/26 06:21:22;;;;;;;3.77;1.53;;;-8.00;99.90;;;;;;4991107;28;20312;-30
2021/12/26 06:23:50;;;;;;;3.50;1.80;;;-7.90;99.90;;;;;;4991428;28;20646;-30
2021/12/26 06:26:24;;;;;;;2.83;1.67;;;-8.00;99.90;;;;;;4981358;28;20496;-30
2021/12/26 06:28:50;;;;;;;5.97;2.20;;;-8.00;99.90;;;;;;4993735;28;20301;-30
2021/12/26 06:31:16;;;;;;;3.90;2.20;;;-7.90;99.90;;;;;;5008757;28;20323;-30
2021/12/26 06:33:42;;;;;;;4.23;1.73;;;-7.90;99.90;;;;;;5000229;28;20293;-30
2021/12/26 06:36:09;;;;;;;3.83;1.63;;;-7.90;99.90;;;;;;4984165;28;20301;-29
2021/12/26 06:38:39;;;;;;;4.77;2.00;;;-7.60;99.90;;;;;;4982305;28;20775;-30
2021/12/26 06:41:06;;;;;;;4.67;2.13;;;-7.90;99.90;;;;;;5011469;28;20273;-30
2021/12/26 06:43:32;;;;;;;4.77;1.90;;;-7.90;99.90;;;;;;5010538;28;20327;-30
2021/12/26 06:45:57;;;;;;;4.17;1.90;;;-7.90;99.90;;;;;;5011400;28;20324;-30
2021/12/26 06:48:23;;;;;;;5.83;2.13;;;-7.90;99.90;;;;;;4994964;28;20046;-30
2021/12/26 06:50:50;;;;;;;4.57;2.17;;;-8.00;99.90;;;;;;5011429;28;20054;-30
2021/12/26 06:53:16;;;;;;;5.90;1.87;;;-8.00;99.90;;;;;;5010681;28;20265;-30
2021/12/26 06:55:43;;;;;;;4.67;2.10;;;-8.00;99.90;;;;;;5011380;28;20645;-30
2021/12/26 06:58:09;;;;;;;6.00;2.50;;;-8.00;99.90;;;;;;4976624;28;20285;-30
2021/12/26 07:00:35;;;;;;;5.80;2.40;;;-8.00;99.90;;;;;;5012262;28;20284;-30
2021/12/26 07:03:02;;;;;;;5.00;1.90;;;-8.00;99.90;;;;;;4992427;28;20485;-30
2021/12/26 07:05:27;;;;;;;4.03;2.00;;;-8.00;99.90;;;;;;5002704;28;20791;-30
2021/12/26 07:07:54;;;;;;;4.90;2.40;;;-8.00;99.90;;;;;;4994225;28;20293;-31
2021/12/26 07:10:20;;;;;;;4.30;1.90;;;-8.00;99.90;;;;;;5013012;28;20053;-30
2021/12/26 07:12:46;;;;;;;6.30;2.70;;;-8.00;99.90;;;;;;5029834;28;20479;-30
2021/12/26 07:15:12;;;;;;;4.63;2.13;;;-8.00;99.90;;;;;;5020185;28;20713;-30
2021/12/26 07:17:40;;;;;;;4.53;2.23;;;-8.00;99.90;;;;;;4994388;28;20049;-30
2021/12/26 07:20:07;;;;;;;4.83;2.57;;;-8.00;99.90;;;;;;5010604;28;20339;-30
2021/12/26 07:22:33;;;;;;;5.03;2.23;;;-8.00;99.90;;;;;;4992370;28;20641;-30
2021/12/26 07:24:59;;;;;;;5.97;2.30;;;-8.00;99.90;;;;;;5006221;28;20293;-30
2021/12/26 07:27:24;;;;;;;5.37;2.10;;;-8.00;99.90;;;;;;4994440;28;20481;-30
2021/12/26 07:29:51;;;;;;;5.80;2.47;;;-8.00;99.90;;;;;;5010822;28;20488;-30
2021/12/26 07:32:17;;;;;;;4.23;2.50;;;-8.00;99.90;;;;;;5009610;28;20352;-29
2021/12/26 07:34:43;;;;;;;7.10;2.77;;;-8.00;99.90;;;;;;5010843;28;20147;-30
2021/12/26 07:37:09;;;;;;;5.37;2.53;;;-8.00;99.90;;;;;;4948840;28;20548;-30
2021/12/26 07:39:35;;;;;;;5.37;2.47;;;-8.00;99.90;;;;;;4990575;28;20285;-30
2021/12/26 07:42:01;;;;;;;7.43;3.13;;;-8.00;99.90;;;;;;4973356;28;20817;-30
2021/12/26 07:44:27;;;;;;;4.27;2.77;;;-8.00;99.90;;;;;;5002654;28;20388;-30
2021/12/26 07:46:53;;;;;;;6.03;2.70;;;-8.00;99.90;;;;;;4994963;28;20297;-30
2021/12/26 07:49:21;;;;;;;6.30;2.67;;;-8.00;99.90;;;;;;5009160;28;20081;-30
2021/12/26 07:51:48;;;;;;;6.00;3.17;;;-8.00;99.90;;;;;;5010527;28;20081;-30
2021/12/26 07:54:15;;;;;;;7.13;2.70;;;-8.00;99.90;;;;;;4975376;28;20293;-30
2021/12/26 07:56:41;;;;;;;4.63;2.60;;;-8.00;99.90;;;;;;4996262;28;20332;-30
2021/12/26 07:59:07;;;;;;;4.37;2.80;;;-8.00;99.90;;;;;;4989573;28;20379;-30
2021/12/26 08:01:33;;;;;;;7.07;3.83;;;-8.00;99.90;;;;;;5012200;28;20054;-30
2021/12/26 08:04:01;;;;;;;4.83;3.33;;;-8.00;99.90;;;;;;5005908;28;20362;-30
2021/12/26 08:06:29;;;;;;;6.97;2.83;;;-8.00;99.90;;;;;;4975232;28;20521;-30
2021/12/26 08:08:55;;;;;;;7.33;3.23;;;-8.00;99.90;;;;;;5005638;28;20292;-30
2021/12/26 08:11:21;;;;;;;7.27;3.47;;;-8.00;99.90;;;;;;5029050;28;20395;-29
2021/12/26 08:13:47;;;;;;;6.83;4.17;;;-8.00;99.90;;;;;;5010882;28;20053;-30
2021/12/26 08:16:12;;;;;;;8.43;3.43;;;-8.00;99.90;;;;;;5002529;28;20132;-30
2021/12/26 08:18:38;;;;;;;11.43;5.23;;;-7.70;99.90;;;;;;5002458;28;20084;-30
2021/12/26 08:21:04;;;;;;;11.33;5.23;;;-7.90;99.90;;;;;;5009877;28;20060;-29
2021/12/26 08:23:30;;;;;;;13.17;6.10;;;-7.90;99.90;;;;;;4986250;28;20249;-30
2021/12/26 08:25:56;;;;;;;12.87;5.47;;;-7.90;99.90;;;;;;4991576;28;20046;-30
2021/12/26 08:28:21;;;;;;;31.10;12.70;;;-7.90;99.90;;;;;;4992792;28;20050;-30
2021/12/26 08:30:48;;;;;;;41.17;18.83;;;-7.90;99.90;;;;;;5009739;28;20057;-29
2021/12/26 08:33:14;;;;;;;36.40;15.00;;;-7.80;99.90;;;;;;5008799;28;20120;-30
2021/12/26 08:35:45;;;;;;;28.10;11.87;;;-7.80;99.90;;;;;;4990430;28;20285;-30
2021/12/26 08:38:13;;;;;;;19.40;8.52;;;-7.80;99.90;;;;;;4977798;28;20300;-30
2021/12/26 08:40:39;;;;;;;14.03;6.20;;;-7.80;99.90;;;;;;5008743;28;20038;-30
2021/12/26 08:43:05;;;;;;;9.87;5.10;;;-7.70;99.90;;;;;;5008155;28;20288;-30
2021/12/26 08:45:31;;;;;;;10.27;4.67;;;-7.60;99.90;;;;;;5008791;28;20163;-30
2021/12/26 08:47:57;;;;;;;10.33;4.97;;;-7.60;99.90;;;;;;4992165;28;20308;-30
2021/12/26 08:50:25;;;;;;;7.90;4.47;;;-7.50;99.90;;;;;;5008544;28;20053;-30
2021/12/26 08:52:52;;;;;;;9.77;4.67;;;-7.50;99.90;;;;;;5006734;28;20307;-30
2021/12/26 08:55:19;;;;;;;8.37;4.70;;;-7.50;99.90;;;;;;5008405;28;20285;-30
2021/12/26 08:57:48;;;;;;;7.63;4.43;;;-7.40;99.90;;;;;;4992021;28;20280;-30
2021/12/26 09:00:15;;;;;;;7.90;4.33;;;-7.40;99.90;;;;;;5009830;28;20788;-30
2021/12/26 09:02:41;;;;;;;9.33;4.40;;;-7.30;99.90;;;;;;5008887;28;20395;-29
2021/12/26 09:05:08;;;;;;;7.97;4.47;;;-7.20;99.90;;;;;;5007392;28;20308;-30
2021/12/26 09:07:34;;;;;;;6.77;3.97;;;-7.20;99.90;;;;;;4991426;28;20050;-30
2021/12/26 09:10:01;;;;;;;9.00;4.10;;;-7.10;99.90;;;;;;5007660;28;20640;-30
2021/12/26 09:12:27;;;;;;;6.33;3.90;;;-7.10;99.90;;;;;;4989113;28;20041;-30
2021/12/26 09:14:52;;;;;;;7.63;3.97;;;-7.10;99.90;;;;;;5007755;28;20629;-29
2021/12/26 09:17:19;;;;;;;6.87;4.00;;;-7.00;99.90;;;;;;4990920;28;20284;-30
2021/12/26 09:19:44;;;;;;;7.20;4.17;;;-7.00;99.90;;;;;;5007483;28;20524;-30
2021/12/26 09:22:15;;;;;;;8.60;4.47;;;-6.90;99.90;;;;;;5006673;28;20350;-30
2021/12/26 09:24:41;;;;;;;6.10;3.73;;;-6.90;99.90;;;;;;5006158;28;20104;-30
2021/12/26 09:27:07;;;;;;;6.37;4.13;;;-6.80;99.90;;;;;;4991140;28;20325;-30
2021/12/26 09:29:33;;;;;;;7.93;3.80;;;-6.80;99.90;;;;;;5006211;28;20697;-30
2021/12/26 09:32:02;;;;;;;8.60;3.97;;;-6.70;99.90;;;;;;5005838;28;20127;-30
2021/12/26 09:34:29;;;;;;;8.90;4.03;;;-6.70;99.90;;;;;;5006535;28;20052;-30
2021/12/26 09:36:55;;;;;;;7.63;3.80;;;-6.60;99.90;;;;;;4990909;28;20288;-30
2021/12/26 09:39:22;;;;;;;6.77;3.77;;;-6.60;99.90;;;;;;5006383;28;20327;-30
2021/12/26 09:41:49;;;;;;;7.83;4.10;;;-6.50;99.90;;;;;;5006676;28;20289;-30
2021/12/26 09:44:16;;;;;;;8.17;4.07;;;-6.50;99.90;;;;;;5006603;28;20385;-30
2021/12/26 09:46:42;;;;;;;7.70;4.30;;;-6.40;99.90;;;;;;4992138;28;20868;-30
2021/12/26 09:49:08;;;;;;;6.90;4.00;;;-6.40;99.90;;;;;;4988144;28;20289;-30
2021/12/26 09:51:34;;;;;;;9.10;4.30;;;-6.30;99.90;;;;;;4989265;28;20390;-30
2021/12/26 09:54:00;;;;;;;9.57;3.93;;;-6.10;99.90;;;;;;5006770;28;20465;-30
2021/12/26 09:56:26;;;;;;;7.23;4.00;;;-6.00;99.90;;;;;;4994797;28;20569;-30
2021/12/26 09:59:01;;;;;;;8.83;3.87;;;-5.90;99.90;;;;;;5002900;28;20812;-30
2021/12/26 10:01:34;;;;;;;7.53;3.50;;;-5.70;99.90;;;;;;5007611;28;20069;-30
2021/12/26 10:04:16;;;;;;;7.97;3.57;;;-5.50;99.90;;;;;;5004679;28;20792;-30
2021/12/26 10:06:42;;;;;;;9.80;4.43;;;-5.40;99.90;;;;;;4968901;28;20304;-30
2021/12/26 10:09:10;;;;;;;8.83;3.80;;;-5.20;99.90;;;;;;4995363;28;20665;-30
2021/12/26 10:11:40;;;;;;;6.77;3.90;;;-5.10;99.90;;;;;;4995977;28;20054;-30
2021/12/26 10:14:10;;;;;;;6.87;4.00;;;-5.00;99.90;;;;;;4996002;28;20277;-30
2021/12/26 10:16:42;;;;;;;7.23;3.80;;;-4.80;99.90;;;;;;4983223;28;20284;-30
2021/12/26 10:19:09;;;;;;;6.73;3.93;;;-4.70;99.90;;;;;;4992222;28;20304;-30
2021/12/26 10:21:47;;;;;;;6.93;3.53;;;-4.50;99.90;;;;;;4995638;28;20285;-30
2021/12/26 10:24:22;;;;;;;7.10;4.17;;;-4.40;99.90;;;;;;5005130;28;20698;-30
2021/12/26 10:27:10;;;;;;;7.27;3.90;;;-4.30;99.90;;;;;;4992740;28;20289;-29
2021/12/26 10:29:44;;;;;;;7.57;3.90;;;-4.10;99.90;;;;;;5007310;28;20331;-30
2021/12/26 10:32:11;;;;;;;7.57;4.20;;;-3.90;99.90;;;;;;5007359;28;20308;-31
2021/12/26 10:34:46;;;;;;;5.10;3.40;;;-3.70;99.90;;;;;;5007719;28;20297;-30
2021/12/26 10:37:21;;;;;;;7.27;3.73;;;-3.50;99.90;;;;;;4974867;28;20300;-30
2021/12/26 10:39:59;;;;;;;5.70;3.47;;;-3.20;99.90;;;;;;5007534;28;20798;-30
2021/12/26 10:42:33;;;;;;;6.70;3.83;;;-3.00;99.90;;;;;;5007102;28;20277;-30
2021/12/26 10:45:00;;;;;;;6.97;3.93;;;-2.80;99.90;;;;;;5007993;28;20054;-31
2021/12/26 10:47:29;;;;;;;6.73;3.57;;;-2.60;99.90;;;;;;4974482;28;20046;-31
2021/12/26 10:49:57;;;;;;;10.20;3.63;;;-2.40;99.90;;;;;;5011438;28;20447;-31
2021/12/26 10:52:25;;;;;;;5.97;3.70;;;-2.30;99.90;;;;;;5010268;28;20413;-31
2021/12/26 10:55:05;;;;;;;6.43;3.33;;;-2.10;99.90;;;;;;5010365;28;20052;-31
2021/12/26 10:57:36;;;;;;;7.13;3.40;;;-1.90;99.90;;;;;;4994869;28;20045;-31
2021/12/26 11:00:08;;;;;;;5.47;3.23;;;-1.80;99.90;;;;;;5010408;28;20061;-31
2021/12/26 11:02:36;;;;;;;6.93;3.17;;;-1.70;99.90;;;;;;5010808;28;20046;-31
2021/12/26 11:05:09;;;;;;;6.30;3.50;;;-1.60;99.90;;;;;;5002608;28;20080;-31
2021/12/26 11:07:49;;;;;;;7.43;3.70;;;-1.50;99.90;;;;;;4994737;28;20045;-31
2021/12/26 11:10:28;;;;;;;4.77;3.13;;;-1.40;99.90;;;;;;5010996;28;20042;-31
2021/12/26 11:12:57;;;;;;;5.50;3.10;;;-1.30;99.90;;;;;;5010428;28;20528;-31
2021/12/26 11:15:25;;;;;;;5.50;3.27;;;-1.30;99.90;;;;;;5011004;28;20046;-31
2021/12/26 11:17:55;;;;;;;6.50;3.60;;;-1.20;99.90;;;;;;4994487;28;20053;-31
2021/12/26 11:20:42;;;;;;;6.57;3.80;;;-1.10;99.90;;;;;;5010716;28;20100;-31
2021/12/26 11:23:14;;;;;;;6.87;3.33;;;-1.10;99.90;;;;;;5009949;28;20042;-31
2021/12/26 11:25:45;;;;;;;8.33;3.53;;;-1.00;99.90;;;;;;5010748;28;20050;-31
2021/12/26 11:28:13;;;;;;;5.68;3.20;;;-0.90;99.90;;;;;;4976672;28;20126;-31
2021/12/26 11:30:41;;;;;;;5.63;3.20;;;-0.80;99.90;;;;;;5010029;28;20058;-31
2021/12/26 11:33:08;;;;;;;7.63;3.80;;;-0.80;99.90;;;;;;5009992;28;20058;-31
2021/12/26 11:35:35;;;;;;;6.27;3.80;;;-0.90;99.90;;;;;;5010382;28;20049;-31
2021/12/26 11:38:02;;;;;;;5.27;3.27;;;-0.90;99.90;;;;;;4994984;28;20517;-31
2021/12/26 11:40:29;;;;;;;5.67;3.70;;;-1.00;99.90;;;;;;5010492;28;20080;-31
2021/12/26 11:43:18;;;;;;;5.70;3.60;;;-1.10;99.90;;;;;;4992208;28;20049;-31
2021/12/26 11:45:53;;;;;;;7.17;3.53;;;-1.10;99.90;;;;;;5010210;28;20133;-31
2021/12/26 11:48:45;;;;;;;6.73;3.53;;;-1.10;99.90;;;;;;4993974;28;20050;-31
2021/12/26 11:51:20;;;;;;;5.73;2.90;;;-1.00;99.90;;;;;;5010247;28;20049;-31
2021/12/26 11:54:16;;;;;;;5.07;3.23;;;-1.00;99.90;;;;;;5009357;28;20046;-31
2021/12/26 11:56:44;;;;;;;5.70;3.33;;;-1.00;99.90;;;;;;4993341;28;20057;-30
2021/12/26 11:59:19;;;;;;;6.87;3.30;;;-1.10;99.90;;;;;;5008127;28;20073;-31
2021/12/26 12:01:48;;;;;;;5.13;3.43;;;-1.10;99.90;;;;;;5009692;28;20054;-31
2021/12/26 12:04:18;;;;;;;4.70;3.27;;;-1.20;99.90;;;;;;4986174;28;20130;-31
2021/12/26 12:06:48;;;;;;;5.80;3.57;;;-1.30;99.90;;;;;;4991800;28;20041;-30
2021/12/26 12:09:27;;;;;;;6.20;3.90;;;-1.30;99.90;;;;;;5007158;28;20049;-30
2021/12/26 12:12:01;;;;;;;8.27;3.73;;;-1.30;99.90;;;;;;4990071;28;20577;-31
2021/12/26 12:14:44;;;;;;;6.13;3.47;;;-1.40;99.90;;;;;;4994059;28;20091;-31
2021/12/26 12:17:23;;;;;;;9.33;3.90;;;-1.40;99.90;;;;;;4993370;28;20046;-31
2021/12/26 12:20:17;;;;;;;6.10;3.87;;;-1.40;99.90;;;;;;5009629;28;20130;-31
2021/12/26 12:23:09;;;;;;;7.67;4.20;;;-1.40;99.90;;;;;;4989529;28;20046;-30
2021/12/26 12:25:38;;;;;;;;;;;-1.50;99.90;;;;;;5001031;28;20053;-30
2021/12/26 12:28:10;;;;;;;7.03;3.50;;;-1.50;99.90;;;;;;4993272;28;19932;-31
2021/12/26 12:30:38;;;;;;;6.93;4.13;;;-1.60;99.90;;;;;;4987963;28;20060;-31
2021/12/26 12:33:25;;;;;;;7.63;3.97;;;-1.60;99.90;;;;;;4989444;28;20058;-31
2021/12/26 12:36:12;;;;;;;7.07;3.90;;;-1.60;99.90;;;;;;4989047;28;20050;-30
2021/12/26 12:38:42;;;;;;;5.63;3.77;;;-1.60;99.90;;;;;;4983579;28;20070;-31
2021/12/26 12:41:30;;;;;;;9.07;4.30;;;-1.60;99.90;;;;;;4989934;28;20526;-30
2021/12/26 12:43:58;;;;;;;6.57;3.73;;;-1.50;99.90;;;;;;4988564;28;20077;-31
2021/12/26 12:46:25;;;;;;;8.63;3.97;;;-1.50;99.90;;;;;;4976393;28;20472;-30
2021/12/26 12:49:02;;;;;;;7.00;3.70;;;-1.50;99.90;;;;;;4981974;28;20133;-31
2021/12/26 12:51:29;;;;;;;6.20;3.87;;;-1.50;99.90;;;;;;4988839;28;20524;-30
2021/12/26 12:53:59;;;;;;;8.53;3.90;;;-1.40;99.90;;;;;;4988547;28;20642;-31